createdAt,value
2018-11-27T00:00:33.630Z,3.40
2018-11-27T00:03:04.541Z,3.40
2018-11-27T00:05:34.154Z,3.40
2018-11-27T00:08:02.963Z,3.30
2018-11-27T00:10:33.477Z,3.20
2018-11-27T00:13:02.338Z,3.20
2018-11-27T00:15:31.116Z,3.20
2018-11-27T00:17:59.952Z,3.10
2018-11-27T00:20:29.083Z,3.10
2018-11-27T00:22:58.716Z,3.20
2018-11-27T00:25:27.515Z,3.20
2018-11-27T00:27:57.013Z,3.20
2018-11-27T00:30:25.968Z,3.20
2018-11-27T00:32:54.773Z,3.20
2018-11-27T00:35:23.558Z,3.20
2018-11-27T00:37:52.465Z,3.20
2018-11-27T00:40:23.438Z,3.20
2018-11-27T00:42:52.470Z,3.20
2018-11-27T00:45:21.818Z,3.20
2018-11-27T00:47:51.222Z,3.20
2018-11-27T00:50:23.974Z,3.20
2018-11-27T00:52:52.948Z,3.10
2018-11-27T00:55:22.293Z,3.10
2018-11-27T00:57:52.206Z,3.00
2018-11-27T01:00:21.946Z,2.90
2018-11-27T01:02:51.034Z,3.00
2018-11-27T01:05:21.259Z,2.90
2018-11-27T01:07:50.141Z,2.90
2018-11-27T01:10:21.813Z,2.90
2018-11-27T01:12:50.878Z,2.80
2018-11-27T01:15:19.665Z,2.80
2018-11-27T01:17:54.242Z,2.80
2018-11-27T01:20:23.231Z,2.70
2018-11-27T01:22:52.120Z,2.60
2018-11-27T01:25:20.962Z,2.60
2018-11-27T01:27:49.925Z,2.60
2018-11-27T01:30:20.925Z,2.70
2018-11-27T01:32:51.109Z,2.70
2018-11-27T01:35:21.794Z,2.70
2018-11-27T01:37:54.353Z,2.70
2018-11-27T01:40:24.988Z,2.60
2018-11-27T01:42:55.488Z,2.60
2018-11-27T01:45:24.848Z,2.70
2018-11-27T01:47:53.862Z,2.60
2018-11-27T01:50:22.910Z,2.70
2018-11-27T01:52:51.956Z,2.60
2018-11-27T01:55:22.609Z,2.70
2018-11-27T01:57:51.484Z,2.80
2018-11-27T02:00:29.534Z,2.80
2018-11-27T02:02:59.661Z,2.80
2018-11-27T02:05:29.228Z,2.70
2018-11-27T02:07:58.188Z,2.80
2018-11-27T02:10:27.171Z,2.80
2018-11-27T02:13:01.094Z,2.80
2018-11-27T02:15:27.121Z,2.80
2018-11-27T02:17:55.920Z,2.80
2018-11-27T02:20:24.813Z,2.90
2018-11-27T02:22:53.777Z,2.90
2018-11-27T02:25:26.337Z,2.90
2018-11-27T02:27:55.299Z,2.90
2018-11-27T02:30:25.262Z,2.90
2018-11-27T02:32:54.645Z,2.80
2018-11-27T02:35:25.330Z,2.90
2018-11-27T02:37:55.497Z,2.90
2018-11-27T02:40:24.277Z,2.80
2018-11-27T02:42:53.093Z,2.90
2018-11-27T02:45:24.399Z,2.90
2018-11-27T02:47:54.018Z,2.90
2018-11-27T02:50:24.191Z,2.90
2018-11-27T02:52:53.066Z,2.90
2018-11-27T02:55:22.885Z,2.90
2018-11-27T02:57:51.674Z,2.90
2018-11-27T03:00:22.586Z,3.00
2018-11-27T03:02:51.373Z,3.00
2018-11-27T03:05:23.926Z,3.00
2018-11-27T03:07:52.689Z,3.00
2018-11-27T03:10:21.473Z,3.00
2018-11-27T03:12:50.293Z,3.00
2018-11-27T03:15:19.137Z,3.00
2018-11-27T03:17:47.855Z,3.00
2018-11-27T03:20:17.388Z,2.90
2018-11-27T03:22:46.259Z,3.00
2018-11-27T03:25:16.724Z,3.00
2018-11-27T03:27:46.410Z,3.00
2018-11-27T03:30:18.176Z,3.00
2018-11-27T03:32:47.046Z,3.00
2018-11-27T03:35:18.305Z,3.00
2018-11-27T03:37:47.805Z,3.10
2018-11-27T03:40:19.383Z,3.20
2018-11-27T03:42:48.890Z,3.10
2018-11-27T03:45:18.725Z,3.10
2018-11-27T03:47:47.631Z,3.00
2018-11-27T03:50:18.092Z,3.00
2018-11-27T03:52:46.960Z,3.00
2018-11-27T03:55:15.816Z,2.90
2018-11-27T03:57:44.724Z,2.90
2018-11-27T04:00:16.653Z,2.90
2018-11-27T04:02:47.006Z,2.90
2018-11-27T04:05:16.006Z,2.80
2018-11-27T04:07:44.821Z,2.90
2018-11-27T04:10:17.087Z,2.90
2018-11-27T04:12:45.989Z,3.00
2018-11-27T04:15:15.299Z,3.00
2018-11-27T04:17:44.201Z,3.00
2018-11-27T04:20:13.431Z,3.00
2018-11-27T04:22:44.253Z,3.00
2018-11-27T04:25:16.023Z,3.10
2018-11-27T04:27:45.420Z,3.10
2018-11-27T04:30:20.780Z,3.10
2018-11-27T04:32:49.955Z,3.10
2018-11-27T04:35:19.682Z,3.10
2018-11-27T04:37:48.635Z,3.20
2018-11-27T04:40:18.405Z,3.20
2018-11-27T04:42:47.690Z,3.10
2018-11-27T04:45:21.628Z,3.10
2018-11-27T04:47:50.682Z,3.10
2018-11-27T04:50:19.808Z,3.10
2018-11-27T04:52:48.724Z,3.10
2018-11-27T04:55:19.950Z,3.00
2018-11-27T04:57:49.261Z,3.10
2018-11-27T05:00:20.002Z,3.10
2018-11-27T05:02:48.953Z,3.20
2018-11-27T05:05:18.047Z,3.20
2018-11-27T05:07:47.186Z,3.20
2018-11-27T05:10:19.603Z,3.20
2018-11-27T05:12:48.438Z,3.10
2018-11-27T05:15:18.311Z,3.10
2018-11-27T05:17:48.446Z,3.20
2018-11-27T05:20:17.217Z,3.20
2018-11-27T05:22:46.097Z,3.20
2018-11-27T05:25:16.014Z,3.20
2018-11-27T05:27:46.770Z,3.10
2018-11-27T05:30:19.606Z,3.10
2018-11-27T05:32:48.406Z,3.20
2018-11-27T05:35:18.478Z,3.20
2018-11-27T05:37:48.317Z,3.20
2018-11-27T05:40:18.437Z,3.20
2018-11-27T05:42:48.555Z,3.30
2018-11-27T05:45:18.500Z,3.30
2018-11-27T05:47:47.413Z,3.40
2018-11-27T05:50:17.201Z,3.30
2018-11-27T05:52:46.133Z,3.30
2018-11-27T05:55:15.398Z,3.20
2018-11-27T05:57:45.377Z,3.20
2018-11-27T06:00:22.088Z,3.10
2018-11-27T06:02:52.119Z,3.20
2018-11-27T06:05:21.760Z,3.10
2018-11-27T06:07:50.696Z,3.20
2018-11-27T06:10:20.495Z,3.20
2018-11-27T06:12:49.280Z,3.20
2018-11-27T06:15:23.057Z,3.10
2018-11-27T06:17:52.977Z,3.20
2018-11-27T06:20:22.403Z,3.20
2018-11-27T06:22:51.602Z,3.10
2018-11-27T06:25:22.525Z,3.10
2018-11-27T06:27:56.539Z,3.20
2018-11-27T06:30:26.342Z,3.20
2018-11-27T06:32:55.447Z,3.20
2018-11-27T06:35:25.676Z,3.20
2018-11-27T06:37:54.490Z,3.20
2018-11-27T06:40:24.693Z,3.20
2018-11-27T06:42:53.506Z,3.30
2018-11-27T06:45:22.605Z,3.30
2018-11-27T06:47:52.270Z,3.30
2018-11-27T06:50:21.874Z,3.30
2018-11-27T06:52:50.685Z,3.40
2018-11-27T06:55:21.467Z,3.40
2018-11-27T06:57:50.381Z,3.40
2018-11-27T07:00:23.497Z,3.30
2018-11-27T07:02:52.325Z,3.30
2018-11-27T07:05:21.086Z,3.30
2018-11-27T07:07:49.892Z,3.30
2018-11-27T07:10:24.890Z,3.30
2018-11-27T07:12:58.455Z,3.30
2018-11-27T07:15:27.214Z,3.40
2018-11-27T07:17:56.086Z,3.40
2018-11-27T07:20:25.206Z,3.40
2018-11-27T07:22:53.965Z,3.50
2018-11-27T07:25:22.743Z,3.50
2018-11-27T07:27:51.726Z,3.30
2018-11-27T07:30:21.835Z,3.40
2018-11-27T07:32:50.934Z,3.40
2018-11-27T07:35:19.929Z,3.50
2018-11-27T07:37:48.786Z,3.50
2018-11-27T07:40:23.590Z,3.40
2018-11-27T07:42:54.591Z,3.50
2018-11-27T07:45:23.917Z,3.50
2018-11-27T07:47:52.701Z,3.50
2018-11-27T07:50:21.497Z,3.50
2018-11-27T07:52:50.289Z,3.40
2018-11-27T07:55:20.154Z,3.40
2018-11-27T07:57:49.504Z,3.40
2018-11-27T08:00:19.611Z,3.40
2018-11-27T08:02:50.417Z,3.50
2018-11-27T08:05:24.324Z,3.50
2018-11-27T08:07:54.099Z,3.50
2018-11-27T08:10:30.634Z,3.50
2018-11-27T08:12:59.402Z,3.50
2018-11-27T08:15:29.313Z,3.50
2018-11-27T08:17:58.106Z,3.60
2018-11-27T08:20:31.779Z,3.60
2018-11-27T08:23:00.633Z,3.60
2018-11-27T08:25:29.417Z,3.60
2018-11-27T08:27:58.201Z,3.60
2018-11-27T08:30:26.986Z,3.60
2018-11-27T08:32:56.528Z,3.60
2018-11-27T08:35:26.905Z,3.60
2018-11-27T08:37:57.941Z,3.60
2018-11-27T08:40:28.014Z,3.60
2018-11-27T08:42:56.885Z,3.70
2018-11-27T08:45:25.837Z,3.70
2018-11-27T08:47:55.306Z,3.70
2018-11-27T08:50:26.043Z,3.70
2018-11-27T08:52:58.215Z,3.70
2018-11-27T08:55:31.584Z,3.80
2018-11-27T08:58:01.096Z,3.70
2018-11-27T09:00:29.866Z,3.80
2018-11-27T09:02:58.643Z,3.80
2018-11-27T09:05:27.410Z,3.80
2018-11-27T09:07:56.184Z,3.70
2018-11-27T09:10:25.814Z,3.70
2018-11-27T09:12:54.597Z,3.70
2018-11-27T09:15:23.953Z,3.70
2018-11-27T09:17:59.030Z,3.70
2018-11-27T09:20:27.917Z,3.80
2018-11-27T09:22:56.820Z,3.70
2018-11-27T09:25:25.638Z,3.80
2018-11-27T09:27:54.669Z,3.80
2018-11-27T09:30:24.714Z,3.80
2018-11-27T09:32:54.182Z,3.90
2018-11-27T09:35:23.050Z,3.90
2018-11-27T09:37:51.826Z,3.90
2018-11-27T09:40:21.410Z,4.00
2018-11-27T09:42:50.198Z,4.10
2018-11-27T09:45:20.061Z,4.10
2018-11-27T09:47:49.962Z,4.10
2018-11-27T09:50:18.752Z,4.10
2018-11-27T09:52:47.552Z,4.10
2018-11-27T09:55:18.216Z,4.10
2018-11-27T09:57:47.053Z,4.10
2018-11-27T10:00:18.011Z,4.10
2018-11-27T10:02:46.917Z,4.10
2018-11-27T10:05:16.022Z,4.20
2018-11-27T10:07:44.786Z,4.20
2018-11-27T10:10:16.869Z,4.10
2018-11-27T10:12:46.138Z,4.10
2018-11-27T10:15:15.954Z,4.10
2018-11-27T10:17:45.895Z,4.00
2018-11-27T10:20:16.622Z,4.00
2018-11-27T10:22:45.610Z,4.00
2018-11-27T10:25:14.461Z,4.00
2018-11-27T10:27:44.943Z,4.10
2018-11-27T10:30:19.721Z,4.00
2018-11-27T10:32:50.121Z,4.00
2018-11-27T10:35:23.549Z,3.90
2018-11-27T10:37:53.314Z,3.90
2018-11-27T10:40:22.991Z,3.90
2018-11-27T10:42:53.218Z,3.90
2018-11-27T10:45:22.797Z,3.90
2018-11-27T10:47:53.675Z,3.90
2018-11-27T10:50:22.551Z,3.90
2018-11-27T10:52:53.312Z,3.90
2018-11-27T10:55:22.570Z,3.80
2018-11-27T10:57:51.354Z,3.80
2018-11-27T11:00:27.318Z,3.80
2018-11-27T11:04:04.228Z,3.70
2018-11-27T11:06:34.804Z,3.80
2018-11-27T11:09:07.721Z,3.80
2018-11-27T11:11:36.869Z,3.80
2018-11-27T11:14:06.089Z,3.90
2018-11-27T11:16:34.978Z,4.00
2018-11-27T11:19:03.771Z,3.90
2018-11-27T11:21:32.587Z,3.90
2018-11-27T11:24:01.369Z,3.90
2018-11-27T11:26:30.210Z,3.90
2018-11-27T11:28:58.986Z,3.90
2018-11-27T11:31:27.936Z,4.00
2018-11-27T11:33:56.705Z,4.00
2018-11-27T11:36:25.470Z,4.00
2018-11-27T11:38:55.306Z,4.00
2018-11-27T11:41:24.099Z,4.00
2018-11-27T11:43:52.891Z,4.10
2018-11-27T11:46:21.685Z,4.10
2018-11-27T11:48:50.457Z,4.10
2018-11-27T11:51:19.254Z,4.10
2018-11-27T11:53:48.031Z,4.10
2018-11-27T11:56:16.804Z,4.10
2018-11-27T11:58:45.585Z,4.10
2018-11-27T12:01:14.449Z,4.10
2018-11-27T12:03:43.226Z,4.20
2018-11-27T12:06:12.006Z,4.20
2018-11-27T12:08:40.774Z,4.20
2018-11-27T12:11:09.588Z,4.20
2018-11-27T12:13:38.389Z,4.20
2018-11-27T12:16:07.162Z,4.20
2018-11-27T12:18:35.952Z,4.20
2018-11-27T12:21:04.983Z,4.30
2018-11-27T12:23:33.781Z,4.30
2018-11-27T12:26:02.570Z,4.40
2018-11-27T12:28:31.368Z,4.30
2018-11-27T12:31:00.143Z,4.30
2018-11-27T12:33:28.938Z,4.30
2018-11-27T12:35:57.831Z,4.40
2018-11-27T12:38:26.734Z,4.30
2018-11-27T12:40:55.630Z,4.30
2018-11-27T12:43:24.756Z,4.40
2018-11-27T12:45:53.529Z,4.40
2018-11-27T12:48:22.357Z,4.40
2018-11-27T12:50:51.561Z,4.40
2018-11-27T12:53:20.349Z,4.40
2018-11-27T12:55:50.120Z,4.30
2018-11-27T12:58:18.899Z,4.30
2018-11-27T13:00:47.737Z,4.30
2018-11-27T13:03:16.706Z,4.30
2018-11-27T13:05:46.297Z,4.30
2018-11-27T13:08:17.534Z,4.40
2018-11-27T13:10:46.347Z,4.40
2018-11-27T13:13:15.341Z,4.30
2018-11-27T13:15:44.625Z,4.40
2018-11-27T13:18:13.417Z,4.40
2018-11-27T13:20:42.341Z,4.40
2018-11-27T13:23:11.105Z,4.40
2018-11-27T13:25:39.944Z,4.40
2018-11-27T13:28:10.073Z,4.40
2018-11-27T13:31:10.825Z,4.50
2018-11-27T13:33:49.887Z,4.40
2018-11-27T13:36:18.705Z,4.50
2018-11-27T13:38:47.478Z,4.50
2018-11-27T13:41:16.277Z,4.60
2018-11-27T13:43:45.058Z,4.60
2018-11-27T13:46:13.842Z,4.60
2018-11-27T13:48:42.643Z,4.50
2018-11-27T13:51:11.414Z,4.50
2018-11-27T13:53:40.189Z,4.40
2018-11-27T13:56:08.992Z,4.30
2018-11-27T13:58:37.754Z,4.40
2018-11-27T14:01:06.599Z,4.40
2018-11-27T14:03:35.371Z,4.40
2018-11-27T14:06:04.162Z,4.40
2018-11-27T14:08:32.950Z,4.40
2018-11-27T14:11:01.733Z,4.40
2018-11-27T14:13:30.598Z,4.40
2018-11-27T14:15:59.748Z,4.50
2018-11-27T14:18:28.568Z,4.50
2018-11-27T14:20:57.322Z,4.50
2018-11-27T14:23:26.143Z,4.40
2018-11-27T14:25:54.958Z,4.40
2018-11-27T14:28:23.760Z,4.40
2018-11-27T14:30:52.530Z,4.40
2018-11-27T14:33:21.318Z,4.30
2018-11-27T14:35:50.102Z,4.30
2018-11-27T14:38:18.881Z,4.30
2018-11-27T14:40:47.651Z,4.40
2018-11-27T14:43:16.485Z,4.50
2018-11-27T14:45:45.254Z,4.50
2018-11-27T14:48:14.041Z,4.40
2018-11-27T14:50:42.817Z,4.30
2018-11-27T14:53:11.613Z,4.20
2018-11-27T14:55:40.687Z,4.10
2018-11-27T14:58:14.899Z,4.10
2018-11-27T15:00:38.233Z,4.00
2018-11-27T15:03:07.026Z,3.90
2018-11-27T15:05:36.942Z,3.80
2018-11-27T15:08:08.285Z,3.90
2018-11-27T15:10:37.072Z,3.90
2018-11-27T15:13:06.691Z,3.80
2018-11-27T15:15:35.520Z,3.80
2018-11-27T15:18:04.601Z,3.80
2018-11-27T15:20:33.443Z,3.80
2018-11-27T15:23:02.669Z,3.80
2018-11-27T15:25:31.455Z,3.70
2018-11-27T15:28:00.233Z,3.60
2018-11-27T15:30:30.761Z,3.50
2018-11-27T15:33:00.225Z,3.50
2018-11-27T15:35:32.170Z,3.50
2018-11-27T15:38:00.941Z,3.50
2018-11-27T15:40:30.191Z,3.40
2018-11-27T15:42:59.149Z,3.40
2018-11-27T15:45:30.066Z,3.40
2018-11-27T15:47:58.917Z,3.40
2018-11-27T15:50:27.859Z,3.40
2018-11-27T15:52:56.662Z,3.30
2018-11-27T15:55:27.537Z,3.30
2018-11-27T15:57:57.901Z,3.30
2018-11-27T16:00:26.822Z,3.20
2018-11-27T16:02:55.806Z,3.40
2018-11-27T16:05:24.601Z,3.50
2018-11-27T16:07:53.404Z,3.70
2018-11-27T16:10:22.550Z,3.60
2018-11-27T16:12:51.332Z,3.60
2018-11-27T16:15:20.564Z,3.60
2018-11-27T16:17:49.995Z,3.50
2018-11-27T16:20:21.360Z,3.50
2018-11-27T16:22:51.186Z,3.40
2018-11-27T16:25:22.178Z,3.30
2018-11-27T16:27:51.062Z,3.30
2018-11-27T16:30:20.951Z,3.20
2018-11-27T16:32:49.741Z,3.20
2018-11-27T16:35:18.533Z,3.20
2018-11-27T16:37:48.846Z,3.20
2018-11-27T16:40:20.877Z,3.30
2018-11-27T16:42:49.690Z,3.40
2018-11-27T16:45:20.471Z,3.60
2018-11-27T16:47:49.908Z,3.50
2018-11-27T16:50:19.025Z,3.50
2018-11-27T16:52:48.121Z,3.50
2018-11-27T16:55:18.013Z,3.60
2018-11-27T16:57:46.868Z,3.60
2018-11-27T17:00:19.537Z,3.70
2018-11-27T17:02:50.347Z,3.70
2018-11-27T17:05:17.999Z,3.50
2018-11-27T17:07:46.811Z,3.50
2018-11-27T17:10:16.569Z,3.50
2018-11-27T17:12:46.006Z,3.60
2018-11-27T17:15:17.878Z,3.50
2018-11-27T17:17:46.748Z,3.60
2018-11-27T17:20:36.085Z,3.60
2018-11-27T17:23:07.973Z,3.70
2018-11-27T17:25:36.905Z,3.70
2018-11-27T17:28:11.574Z,3.70
2018-11-27T17:30:49.321Z,3.80
2018-11-27T17:33:22.646Z,3.70
2018-11-27T17:35:51.441Z,3.70
2018-11-27T17:38:20.319Z,3.70
2018-11-27T17:40:49.125Z,3.70
2018-11-27T17:43:18.013Z,3.60
2018-11-27T17:45:47.034Z,3.50
2018-11-27T17:48:15.986Z,3.50
2018-11-27T17:50:44.782Z,3.50
2018-11-27T17:53:13.661Z,3.50
2018-11-27T17:55:42.450Z,3.50
2018-11-27T17:58:11.265Z,3.60
2018-11-27T18:00:40.345Z,3.60
2018-11-27T18:03:10.176Z,3.60
2018-11-27T18:05:39.117Z,3.50
2018-11-27T18:08:08.078Z,3.50
2018-11-27T18:10:36.974Z,3.50
2018-11-27T18:13:06.606Z,3.50
2018-11-27T18:15:36.651Z,3.50
2018-11-27T18:18:06.657Z,3.60
2018-11-27T18:20:35.942Z,3.60
2018-11-27T18:23:04.865Z,3.70
2018-11-27T18:25:33.698Z,3.70
2018-11-27T18:28:02.551Z,3.80
2018-11-27T18:30:31.387Z,3.80
2018-11-27T18:33:00.210Z,3.70
2018-11-27T18:35:29.002Z,3.70
2018-11-27T18:37:58.149Z,3.60
2018-11-27T18:40:26.941Z,3.70
2018-11-27T18:42:55.769Z,3.70
2018-11-27T18:45:25.774Z,3.60
2018-11-27T18:47:54.578Z,3.50
2018-11-27T18:50:24.462Z,3.50
2018-11-27T18:52:53.281Z,3.50
2018-11-27T18:55:22.177Z,3.60
2018-11-27T18:57:51.070Z,3.60
2018-11-27T19:00:22.001Z,3.50
2018-11-27T19:02:51.041Z,3.50
2018-11-27T19:05:19.907Z,3.50
2018-11-27T19:07:48.811Z,3.50
2018-11-27T19:10:21.605Z,3.60
2018-11-27T19:12:51.016Z,3.60
2018-11-27T19:15:22.337Z,3.60
2018-11-27T19:17:53.181Z,3.50
2018-11-27T19:20:22.014Z,3.50
2018-11-27T19:22:51.077Z,3.50
2018-11-27T19:25:19.865Z,3.50
2018-11-27T19:27:48.910Z,3.60
2018-11-27T19:30:18.873Z,3.60
2018-11-27T19:32:47.666Z,3.60
2018-11-27T19:35:17.750Z,3.60
2018-11-27T19:37:47.419Z,3.60
2018-11-27T19:40:17.507Z,3.60
2018-11-27T19:42:46.371Z,3.60
2018-11-27T19:45:18.172Z,3.60
2018-11-27T19:47:47.117Z,3.70
2018-11-27T19:50:16.027Z,3.70
2018-11-27T19:52:45.814Z,3.80
2018-11-27T19:55:15.709Z,3.80
2018-11-27T19:57:44.519Z,3.90
2018-11-27T20:00:15.759Z,3.90
2018-11-27T20:02:44.658Z,3.80
2018-11-27T20:05:14.844Z,3.90
2018-11-27T20:07:43.726Z,3.90
2018-11-27T20:10:13.419Z,3.90
2018-11-27T20:12:42.366Z,3.90
2018-11-27T20:15:17.377Z,3.90
2018-11-27T20:17:46.713Z,3.80
2018-11-27T20:20:16.607Z,3.90
2018-11-27T20:22:45.387Z,3.90
2018-11-27T20:25:16.176Z,3.90
2018-11-27T20:27:45.018Z,3.90
2018-11-27T20:30:16.365Z,3.90
2018-11-27T20:32:46.805Z,3.80
2018-11-27T20:35:15.874Z,3.80
2018-11-27T20:37:45.110Z,3.70
2018-11-27T20:40:15.778Z,3.80
2018-11-27T20:42:44.931Z,3.70
2018-11-27T20:45:19.383Z,3.70
2018-11-27T20:47:46.145Z,3.60
2018-11-27T20:50:17.129Z,3.70
2018-11-27T20:52:45.999Z,3.70
2018-11-27T20:55:15.125Z,3.80
2018-11-27T20:57:55.264Z,3.70
2018-11-27T21:00:40.932Z,3.60
2018-11-27T21:03:11.148Z,3.60
2018-11-27T21:05:40.357Z,3.60
2018-11-27T21:08:09.330Z,3.50
2018-11-27T21:10:38.624Z,3.50
2018-11-27T21:13:08.724Z,3.50
2018-11-27T21:15:38.264Z,3.50
2018-11-27T21:18:07.831Z,3.40
2018-11-27T21:20:36.650Z,3.40
2018-11-27T21:23:05.525Z,3.40
2018-11-27T21:25:34.309Z,3.50
2018-11-27T21:28:12.355Z,3.50
2018-11-27T21:30:41.206Z,3.50
2018-11-27T21:33:10.052Z,3.50
2018-11-27T21:35:39.078Z,3.50
2018-11-27T21:38:07.833Z,3.40
2018-11-27T21:40:37.103Z,3.50
2018-11-27T21:43:07.348Z,3.50
2018-11-27T21:45:36.298Z,3.50
2018-11-27T21:48:05.474Z,3.50
2018-11-27T21:50:39.349Z,3.50
2018-11-27T21:53:08.129Z,3.50
2018-11-27T21:55:37.554Z,3.50
2018-11-27T21:58:06.938Z,3.50
2018-11-27T22:00:36.062Z,3.40
2018-11-27T22:03:05.390Z,3.50
2018-11-27T22:05:34.203Z,3.40
2018-11-27T22:08:04.030Z,3.40
2018-11-27T22:10:32.849Z,3.40
2018-11-27T22:13:01.692Z,3.30
2018-11-27T22:15:35.028Z,3.30
2018-11-27T22:18:04.717Z,3.30
2018-11-27T22:20:33.528Z,3.20
2018-11-27T22:23:02.498Z,3.20
2018-11-27T22:25:31.318Z,3.20
2018-11-27T22:28:00.161Z,3.20
2018-11-27T22:30:28.954Z,3.20
2018-11-27T22:32:57.807Z,3.10
2018-11-27T22:35:26.557Z,3.10
2018-11-27T22:37:55.558Z,3.20
2018-11-27T22:40:25.378Z,3.20
2018-11-27T22:42:55.133Z,3.20
2018-11-27T22:45:34.696Z,3.20
2018-11-27T22:48:03.660Z,3.20
2018-11-27T22:50:32.594Z,3.20
2018-11-27T22:53:01.413Z,3.20
2018-11-27T22:55:30.201Z,3.20
2018-11-27T22:57:59.113Z,3.20
2018-11-27T23:00:33.773Z,3.20
2018-11-27T23:03:02.689Z,3.20
2018-11-27T23:05:31.545Z,3.10
2018-11-27T23:08:00.592Z,3.20
2018-11-27T23:10:32.124Z,3.20
2018-11-27T23:13:01.289Z,3.20
2018-11-27T23:15:30.114Z,3.10
2018-11-27T23:17:58.970Z,3.20
2018-11-27T23:20:27.788Z,3.10
2018-11-27T23:22:56.618Z,3.20
2018-11-27T23:25:25.389Z,3.20
2018-11-27T23:27:54.486Z,3.20
2018-11-27T23:30:24.162Z,3.20
2018-11-27T23:32:53.137Z,3.30
2018-11-27T23:35:21.945Z,3.30
2018-11-27T23:37:50.848Z,3.20
2018-11-27T23:40:21.253Z,3.20
2018-11-27T23:42:50.123Z,3.20
2018-11-27T23:45:20.373Z,3.20
2018-11-27T23:47:49.230Z,3.30
2018-11-27T23:50:19.014Z,3.30
2018-11-27T23:52:47.943Z,3.20
2018-11-27T23:55:17.574Z,3.30
2018-11-27T23:57:46.838Z,3.30
